createdAt,value
2023-05-18T00:00:20.145Z,8.20
2023-05-18T00:02:49.707Z,8.30
2023-05-18T00:05:19.981Z,8.20
2023-05-18T00:07:50.273Z,8.20
2023-05-18T00:10:19.118Z,8.20
2023-05-18T00:12:47.879Z,8.10
2023-05-18T00:15:16.565Z,8.00
2023-05-18T00:17:45.904Z,8.00
2023-05-18T00:20:15.539Z,7.90
2023-05-18T00:22:44.172Z,7.90
2023-05-18T00:25:14.326Z,7.90
2023-05-18T00:27:43.018Z,7.80
2023-05-18T00:30:12.623Z,7.80
2023-05-18T00:32:41.320Z,7.70
2023-05-18T00:35:10.348Z,7.70
2023-05-18T00:37:38.998Z,7.70
2023-05-18T00:40:09.292Z,7.70
2023-05-18T00:42:39.704Z,7.70
2023-05-18T00:45:09.621Z,7.70
2023-05-18T00:47:38.468Z,7.60
2023-05-18T00:50:08.066Z,7.60
2023-05-18T00:52:37.959Z,7.60
2023-05-18T00:55:08.727Z,7.60
2023-05-18T00:57:38.810Z,7.60
2023-05-18T01:00:11.026Z,7.60
2023-05-18T01:02:43.125Z,7.60
2023-05-18T01:05:12.436Z,7.80
2023-05-18T01:07:42.762Z,7.70
2023-05-18T01:10:13.220Z,7.80
2023-05-18T01:12:47.297Z,7.80
2023-05-18T01:15:19.062Z,7.70
2023-05-18T01:18:01.087Z,7.70
2023-05-18T01:20:39.281Z,7.80
2023-05-18T01:23:41.742Z,7.80
2023-05-18T01:26:17.350Z,7.70
2023-05-18T01:28:47.808Z,7.70
2023-05-18T01:31:17.424Z,7.80
2023-05-18T01:33:46.526Z,7.70
2023-05-18T01:36:15.437Z,7.70
2023-05-18T01:38:45.564Z,7.60
2023-05-18T01:41:21.616Z,7.60
2023-05-18T01:43:57.324Z,7.70
2023-05-18T01:46:36.998Z,7.50
2023-05-18T01:49:12.726Z,7.50
2023-05-18T01:51:46.381Z,7.40
2023-05-18T01:54:18.961Z,7.30
2023-05-18T01:56:50.344Z,7.30
2023-05-18T01:59:19.353Z,7.20
2023-05-18T02:01:48.040Z,7.10
2023-05-18T02:04:17.486Z,7.10
2023-05-18T02:06:46.208Z,7.00
2023-05-18T02:09:14.826Z,6.90
2023-05-18T02:11:43.438Z,6.80
2023-05-18T02:14:13.532Z,6.70
2023-05-18T02:16:42.122Z,6.70
2023-05-18T02:19:10.820Z,6.70
2023-05-18T02:21:39.676Z,6.60
2023-05-18T02:24:09.170Z,6.60
2023-05-18T02:26:38.597Z,6.50
2023-05-18T02:29:09.601Z,6.40
2023-05-18T02:31:39.832Z,6.30
2023-05-18T02:34:09.308Z,6.20
2023-05-18T02:36:40.528Z,6.20
2023-05-18T02:39:09.408Z,6.20
2023-05-18T02:41:38.690Z,6.10
2023-05-18T02:44:07.680Z,6.10
2023-05-18T02:46:36.306Z,6.00
2023-05-18T02:49:06.441Z,6.00
2023-05-18T02:51:35.116Z,5.90
2023-05-18T02:54:03.733Z,5.90
2023-05-18T02:56:33.768Z,5.90
2023-05-18T02:59:02.358Z,5.90
2023-05-18T03:01:31.073Z,5.80
2023-05-18T03:03:59.726Z,5.80
2023-05-18T03:06:30.654Z,5.80
2023-05-18T03:08:59.372Z,5.90
2023-05-18T03:11:28.006Z,5.90
2023-05-18T03:13:56.690Z,6.00
2023-05-18T03:16:28.912Z,6.10
2023-05-18T03:18:59.498Z,6.20
2023-05-18T03:21:34.259Z,6.30
2023-05-18T03:24:02.904Z,6.50
2023-05-18T03:26:31.584Z,6.60
2023-05-18T03:29:01.485Z,6.60
2023-05-18T03:31:30.188Z,6.70
2023-05-18T03:33:58.741Z,6.70
2023-05-18T03:36:29.438Z,6.80
2023-05-18T03:38:58.150Z,6.90
2023-05-18T03:41:26.712Z,7.00
2023-05-18T03:43:55.363Z,7.10
2023-05-18T03:46:23.987Z,7.20
2023-05-18T03:48:54.083Z,7.20
2023-05-18T03:51:22.714Z,7.30
2023-05-18T03:53:52.767Z,7.40
2023-05-18T03:56:21.437Z,7.50
2023-05-18T03:58:51.619Z,7.50
2023-05-18T04:01:23.995Z,7.60
2023-05-18T04:03:56.693Z,7.70
2023-05-18T04:06:26.360Z,7.80
2023-05-18T04:08:56.484Z,7.90
2023-05-18T04:11:25.073Z,7.90
2023-05-18T04:13:53.731Z,8.00
2023-05-18T04:16:22.441Z,8.00
2023-05-18T04:18:51.250Z,8.20
2023-05-18T04:21:19.869Z,8.30
2023-05-18T04:23:48.556Z,8.40
2023-05-18T04:26:20.472Z,8.60
2023-05-18T04:28:50.157Z,8.70
2023-05-18T04:31:18.809Z,8.70
2023-05-18T04:33:47.984Z,8.80
2023-05-18T04:36:21.157Z,8.80
2023-05-18T04:38:51.011Z,8.90
2023-05-18T04:41:22.447Z,9.00
2023-05-18T04:43:51.700Z,9.10
2023-05-18T04:46:22.538Z,9.20
2023-05-18T04:48:51.263Z,9.30
2023-05-18T04:51:21.832Z,9.20
2023-05-18T04:53:51.561Z,9.30
2023-05-18T04:56:22.989Z,9.40
2023-05-18T04:58:51.775Z,9.50
2023-05-18T05:01:20.536Z,9.50
2023-05-18T05:03:49.359Z,9.40
2023-05-18T05:06:18.141Z,9.50
2023-05-18T05:08:46.731Z,9.40
2023-05-18T05:11:15.396Z,9.40
2023-05-18T05:13:45.595Z,9.40
2023-05-18T05:16:14.392Z,9.40
2023-05-18T05:18:44.163Z,9.50
2023-05-18T05:21:14.680Z,9.70
2023-05-18T05:23:43.356Z,9.80
2023-05-18T05:26:12.268Z,9.80
2023-05-18T05:28:40.886Z,9.80
2023-05-18T05:31:11.455Z,9.90
2023-05-18T05:33:40.442Z,9.90
2023-05-18T05:36:10.202Z,10.00
2023-05-18T05:38:39.233Z,10.00
2023-05-18T05:41:07.891Z,10.00
2023-05-18T05:43:36.664Z,10.10
2023-05-18T05:46:05.728Z,10.20
2023-05-18T05:48:35.998Z,9.90
2023-05-18T05:51:04.804Z,10.20
2023-05-18T05:53:33.538Z,10.30
2023-05-18T05:56:02.594Z,10.30
2023-05-18T05:58:31.186Z,10.10
2023-05-18T06:00:59.853Z,10.20
2023-05-18T06:03:29.590Z,10.30
2023-05-18T06:05:59.813Z,10.40
2023-05-18T06:08:28.554Z,10.40
2023-05-18T06:10:57.386Z,10.50
2023-05-18T06:13:26.265Z,10.70
2023-05-18T06:15:54.949Z,10.80
2023-05-18T06:18:23.511Z,11.00
2023-05-18T06:20:52.561Z,11.10
2023-05-18T06:23:23.862Z,11.00
2023-05-18T06:25:52.505Z,11.10
2023-05-18T06:28:21.087Z,11.10
2023-05-18T06:30:49.902Z,11.20
2023-05-18T06:33:21.353Z,11.20
2023-05-18T06:35:50.027Z,11.30
2023-05-18T06:38:18.698Z,11.40
2023-05-18T06:40:48.751Z,11.40
2023-05-18T06:43:17.358Z,11.50
2023-05-18T06:45:47.411Z,11.60
2023-05-18T06:48:16.009Z,11.80
2023-05-18T06:50:44.769Z,11.80
2023-05-18T06:53:13.820Z,11.80
2023-05-18T06:55:42.526Z,11.80
2023-05-18T06:58:12.671Z,11.70
2023-05-18T07:00:41.346Z,11.70
2023-05-18T07:03:10.075Z,11.70
2023-05-18T07:05:39.742Z,11.70
2023-05-18T07:08:09.881Z,11.90
2023-05-18T07:10:38.660Z,12.20
2023-05-18T07:13:07.435Z,12.40
2023-05-18T07:15:37.528Z,12.50
2023-05-18T07:18:06.367Z,12.60
2023-05-18T07:20:35.112Z,12.50
2023-05-18T07:23:04.301Z,12.60
2023-05-18T07:25:33.084Z,12.50
2023-05-18T07:28:02.043Z,12.50
2023-05-18T07:30:30.709Z,12.50
2023-05-18T07:33:00.917Z,12.50
2023-05-18T07:35:30.268Z,12.40
2023-05-18T07:37:59.089Z,12.50
2023-05-18T07:40:27.781Z,12.50
2023-05-18T07:42:56.401Z,12.60
2023-05-18T07:45:25.010Z,12.80
2023-05-18T07:47:54.302Z,12.80
2023-05-18T07:50:24.904Z,12.90
2023-05-18T07:52:53.752Z,13.20
2023-05-18T07:55:22.408Z,13.60
2023-05-18T07:57:51.109Z,14.00
2023-05-18T08:00:20.754Z,14.20
2023-05-18T08:02:49.926Z,14.30
2023-05-18T08:05:18.968Z,14.50
2023-05-18T08:07:49.266Z,14.40
2023-05-18T08:10:17.912Z,14.40
2023-05-18T08:12:46.610Z,14.30
2023-05-18T08:15:15.218Z,14.20
2023-05-18T08:17:43.923Z,14.20
2023-05-18T08:20:13.583Z,14.30
2023-05-18T08:22:42.196Z,14.30
2023-05-18T08:25:12.818Z,14.20
2023-05-18T08:27:41.463Z,14.10
2023-05-18T08:30:11.367Z,14.00
2023-05-18T08:32:40.035Z,14.00
2023-05-18T08:35:10.306Z,13.90
2023-05-18T08:37:40.027Z,13.90
2023-05-18T08:40:11.850Z,13.90
2023-05-18T08:42:53.252Z,14.10
2023-05-18T08:45:27.433Z,14.30
2023-05-18T08:47:58.859Z,14.40
2023-05-18T08:50:29.143Z,14.50
2023-05-18T08:53:02.198Z,14.60
2023-05-18T08:55:34.987Z,14.60
2023-05-18T08:58:07.609Z,14.70
2023-05-18T09:00:37.538Z,14.90
2023-05-18T09:03:08.506Z,15.20
2023-05-18T09:05:38.079Z,15.40
2023-05-18T09:08:08.683Z,15.60
2023-05-18T09:10:38.205Z,15.80
2023-05-18T09:13:09.525Z,16.00
2023-05-18T09:15:38.735Z,16.20
2023-05-18T09:18:07.561Z,16.20
2023-05-18T09:20:36.608Z,16.30
2023-05-18T09:23:07.037Z,16.20
2023-05-18T09:25:36.864Z,16.10
2023-05-18T09:28:08.168Z,16.10
2023-05-18T09:30:43.932Z,16.00
2023-05-18T09:33:22.033Z,15.80
2023-05-18T09:35:53.097Z,15.80
2023-05-18T09:38:24.462Z,16.10
2023-05-18T09:40:53.258Z,16.30
2023-05-18T09:43:23.336Z,16.50
2023-05-18T09:45:53.876Z,16.30
2023-05-18T09:48:25.181Z,16.10
2023-05-18T09:50:54.750Z,15.80
2023-05-18T09:53:24.074Z,15.70
2023-05-18T09:55:52.933Z,15.90
2023-05-18T09:58:21.708Z,16.10
2023-05-18T10:00:57.075Z,16.40
2023-05-18T10:03:26.543Z,16.60
2023-05-18T10:05:55.213Z,16.60
2023-05-18T10:08:23.873Z,16.30
2023-05-18T10:10:53.408Z,16.20
2023-05-18T10:13:22.098Z,16.20
2023-05-18T10:15:54.480Z,16.10
2023-05-18T10:18:25.009Z,16.10
2023-05-18T10:20:55.952Z,16.20
2023-05-18T10:23:27.307Z,16.40
2023-05-18T10:25:56.599Z,16.40
2023-05-18T10:28:29.524Z,16.50
2023-05-18T10:31:01.473Z,16.40
2023-05-18T10:33:32.466Z,16.50
2023-05-18T10:36:03.775Z,16.50
2023-05-18T10:38:33.196Z,16.40
2023-05-18T10:41:02.464Z,16.50
2023-05-18T10:43:31.387Z,16.50
2023-05-18T10:46:04.085Z,16.70
2023-05-18T10:48:32.977Z,16.70
2023-05-18T10:51:05.737Z,16.70
2023-05-18T10:53:34.935Z,16.90
2023-05-18T10:56:03.988Z,17.00
2023-05-18T10:58:33.915Z,16.80
2023-05-18T11:01:06.949Z,16.80
2023-05-18T11:03:35.856Z,16.90
2023-05-18T11:06:10.754Z,16.90
2023-05-18T11:08:48.274Z,16.90
2023-05-18T11:11:19.261Z,17.00
2023-05-18T11:13:50.893Z,16.80
2023-05-18T11:16:21.515Z,16.70
2023-05-18T11:18:51.792Z,16.70
2023-05-18T11:21:49.385Z,16.50
2023-05-18T11:24:33.134Z,16.40
2023-05-18T11:27:05.131Z,16.30
2023-05-18T11:29:36.081Z,16.20
2023-05-18T11:32:28.829Z,16.30
2023-05-18T11:34:59.202Z,16.40
2023-05-18T11:37:49.833Z,16.70
2023-05-18T11:40:49.152Z,16.60
2023-05-18T11:43:23.286Z,16.70
2023-05-18T11:45:57.339Z,17.00
2023-05-18T11:48:31.135Z,17.00
2023-05-18T11:50:59.861Z,16.90
2023-05-18T11:53:31.428Z,17.00
2023-05-18T11:56:01.438Z,17.10
2023-05-18T11:58:33.046Z,17.00
2023-05-18T12:01:03.137Z,17.00
2023-05-18T12:03:34.485Z,17.00
2023-05-18T12:06:03.475Z,16.90
2023-05-18T12:08:32.259Z,16.70
2023-05-18T12:11:02.705Z,16.70
2023-05-18T12:13:31.864Z,16.80
2023-05-18T12:16:01.911Z,16.90
2023-05-18T12:18:30.972Z,16.90
2023-05-18T12:21:05.085Z,16.90
2023-05-18T12:23:39.851Z,16.90
2023-05-18T12:26:09.230Z,17.00
2023-05-18T12:28:38.157Z,17.00
2023-05-18T12:31:08.846Z,17.20
2023-05-18T12:33:37.954Z,17.40
2023-05-18T12:36:12.311Z,17.40
2023-05-18T12:38:40.920Z,17.30
2023-05-18T12:41:10.342Z,17.50
2023-05-18T12:43:39.136Z,17.60
2023-05-18T12:46:07.866Z,17.70
2023-05-18T12:48:47.078Z,17.70
2023-05-18T12:51:31.120Z,17.70
2023-05-18T12:53:59.912Z,17.50
2023-05-18T12:56:28.800Z,17.50
2023-05-18T12:59:03.407Z,17.30
2023-05-18T13:01:32.192Z,17.30
2023-05-18T13:04:01.005Z,17.30
2023-05-18T13:06:31.289Z,17.30
2023-05-18T13:08:59.892Z,17.40
2023-05-18T13:11:28.737Z,17.30
2023-05-18T13:14:04.997Z,17.30
2023-05-18T13:16:35.629Z,17.30
2023-05-18T13:19:07.379Z,17.30
2023-05-18T13:21:38.310Z,17.40
2023-05-18T13:24:10.358Z,17.40
2023-05-18T13:26:39.226Z,17.40
2023-05-18T13:29:08.790Z,17.50
2023-05-18T13:31:37.642Z,17.50
2023-05-18T13:34:06.466Z,17.50
2023-05-18T13:36:37.514Z,17.60
2023-05-18T13:39:07.645Z,17.50
2023-05-18T13:41:36.810Z,17.50
2023-05-18T13:44:05.752Z,17.30
2023-05-18T13:46:38.126Z,17.30
2023-05-18T13:49:06.942Z,17.30
2023-05-18T13:51:36.977Z,17.30
2023-05-18T13:54:06.137Z,17.10
2023-05-18T13:56:34.764Z,17.00
2023-05-18T13:59:03.788Z,16.90
2023-05-18T14:01:32.966Z,16.80
2023-05-18T14:04:01.717Z,16.80
2023-05-18T14:06:30.478Z,16.80
2023-05-18T14:09:00.583Z,16.70
2023-05-18T14:11:29.246Z,16.60
2023-05-18T14:13:57.898Z,16.40
2023-05-18T14:16:26.811Z,16.40
2023-05-18T14:18:55.491Z,16.20
2023-05-18T14:21:24.210Z,16.10
2023-05-18T14:23:52.870Z,16.10
2023-05-18T14:26:23.600Z,16.10
2023-05-18T14:28:52.170Z,16.10
2023-05-18T14:31:20.757Z,16.00
2023-05-18T14:33:49.391Z,16.10
2023-05-18T14:36:20.542Z,15.90
2023-05-18T14:39:06.541Z,15.90
2023-05-18T14:41:37.105Z,15.80
2023-05-18T14:44:08.816Z,15.80
2023-05-18T14:46:38.013Z,15.80
2023-05-18T14:49:06.768Z,15.80
2023-05-18T14:51:35.450Z,15.80
2023-05-18T14:54:04.005Z,15.70
2023-05-18T14:56:32.720Z,15.70
2023-05-18T14:59:02.913Z,15.60
2023-05-18T15:01:31.696Z,15.60
2023-05-18T15:04:00.457Z,15.50
2023-05-18T15:06:29.965Z,15.40
2023-05-18T15:08:58.698Z,15.50
2023-05-18T15:11:31.522Z,15.40
2023-05-18T15:14:01.678Z,15.30
2023-05-18T15:16:30.486Z,15.20
2023-05-18T15:18:59.268Z,15.20
2023-05-18T15:21:28.357Z,15.20
2023-05-18T15:23:57.008Z,15.10
2023-05-18T15:26:26.311Z,15.10
2023-05-18T15:28:55.196Z,15.00
2023-05-18T15:31:25.496Z,15.00
2023-05-18T15:33:54.220Z,15.00
2023-05-18T15:36:22.936Z,15.00
2023-05-18T15:38:51.649Z,15.00
2023-05-18T15:41:20.526Z,15.10
2023-05-18T15:43:49.576Z,15.10
2023-05-18T15:46:18.200Z,15.10
2023-05-18T15:48:48.439Z,15.00
2023-05-18T15:51:17.125Z,15.00
2023-05-18T15:53:45.827Z,15.00
2023-05-18T15:56:14.656Z,15.00
2023-05-18T15:58:43.274Z,15.00
2023-05-18T16:01:12.105Z,15.00
2023-05-18T16:03:40.862Z,15.00
2023-05-18T16:06:11.272Z,15.00
2023-05-18T16:08:40.087Z,15.10
2023-05-18T16:11:08.858Z,15.10
2023-05-18T16:13:37.576Z,15.10
2023-05-18T16:16:07.097Z,15.10
2023-05-18T16:18:35.785Z,15.00
2023-05-18T16:21:04.747Z,15.00
2023-05-18T16:23:36.463Z,15.00
2023-05-18T16:26:05.912Z,14.90
2023-05-18T16:28:34.920Z,14.90
2023-05-18T16:31:04.932Z,14.90
2023-05-18T16:33:33.814Z,14.90
2023-05-18T16:36:02.704Z,14.80
2023-05-18T16:38:31.669Z,14.70
2023-05-18T16:41:01.929Z,14.70
2023-05-18T16:43:30.701Z,14.60
2023-05-18T16:46:00.726Z,14.50
2023-05-18T16:48:29.488Z,14.40
2023-05-18T16:51:00.617Z,14.50
2023-05-18T16:53:29.389Z,14.40
2023-05-18T16:55:58.152Z,14.30
2023-05-18T16:58:28.324Z,14.10
2023-05-18T17:00:57.064Z,14.10
2023-05-18T17:03:25.928Z,14.10
2023-05-18T17:05:54.727Z,14.10
2023-05-18T17:08:23.779Z,14.00
2023-05-18T17:10:52.503Z,13.90
2023-05-18T17:13:21.214Z,13.90
2023-05-18T17:15:51.684Z,13.80
2023-05-18T17:18:20.422Z,13.80
2023-05-18T17:20:49.094Z,13.70
2023-05-18T17:23:19.089Z,13.60
2023-05-18T17:25:48.634Z,13.60
2023-05-18T17:28:19.124Z,13.60
2023-05-18T17:30:48.150Z,13.60
2023-05-18T17:33:18.362Z,13.60
2023-05-18T17:35:47.060Z,13.60
2023-05-18T17:38:17.385Z,13.60
2023-05-18T17:40:46.070Z,13.60
2023-05-18T17:43:14.865Z,13.50
2023-05-18T17:45:43.566Z,13.50
2023-05-18T17:48:12.465Z,13.50
2023-05-18T17:50:42.621Z,13.50
2023-05-18T17:53:11.273Z,13.40
2023-05-18T17:55:40.125Z,13.30
2023-05-18T17:58:08.938Z,13.30
2023-05-18T18:00:37.572Z,13.20
2023-05-18T18:03:06.366Z,13.20
2023-05-18T18:05:35.151Z,13.10
2023-05-18T18:08:05.391Z,13.10
2023-05-18T18:10:35.009Z,13.00
2023-05-18T18:13:03.661Z,12.90
2023-05-18T18:15:32.441Z,12.90
2023-05-18T18:18:01.584Z,12.90
2023-05-18T18:20:31.757Z,12.80
2023-05-18T18:23:00.771Z,12.80
2023-05-18T18:25:31.331Z,12.70
2023-05-18T18:28:00.275Z,12.70
2023-05-18T18:30:30.131Z,12.70
2023-05-18T18:33:01.905Z,12.60
2023-05-18T18:35:30.724Z,12.60
2023-05-18T18:37:59.605Z,12.50
2023-05-18T18:40:29.984Z,12.50
2023-05-18T18:42:58.964Z,12.50
2023-05-18T18:45:29.321Z,12.50
2023-05-18T18:47:58.088Z,12.50
2023-05-18T18:50:26.959Z,12.40
2023-05-18T18:52:57.269Z,12.40
2023-05-18T18:55:26.267Z,12.40
2023-05-18T18:57:58.874Z,12.30
2023-05-18T19:00:27.804Z,12.40
2023-05-18T19:02:56.561Z,12.40
2023-05-18T19:05:25.326Z,12.40
2023-05-18T19:07:56.027Z,12.30
2023-05-18T19:10:25.764Z,12.20
2023-05-18T19:12:57.235Z,12.20
2023-05-18T19:15:26.002Z,12.30
2023-05-18T19:17:54.883Z,12.20
2023-05-18T19:20:25.144Z,12.20
2023-05-18T19:22:54.467Z,12.20
2023-05-18T19:25:24.826Z,12.20
2023-05-18T19:28:10.853Z,12.20
2023-05-18T19:30:39.933Z,12.10
2023-05-18T19:33:08.677Z,12.10
2023-05-18T19:35:37.432Z,12.10
2023-05-18T19:38:06.129Z,12.10
2023-05-18T19:40:34.853Z,12.10
2023-05-18T19:43:03.595Z,12.10
2023-05-18T19:45:34.753Z,12.10
2023-05-18T19:48:04.016Z,12.10
2023-05-18T19:50:32.817Z,12.10
2023-05-18T19:53:01.907Z,12.10
2023-05-18T19:55:33.311Z,12.10
2023-05-18T19:58:01.964Z,12.10
2023-05-18T20:00:31.240Z,12.10
2023-05-18T20:03:03.391Z,12.10
2023-05-18T20:05:32.142Z,12.10
2023-05-18T20:08:02.226Z,12.10
2023-05-18T20:10:31.344Z,12.10
2023-05-18T20:13:03.528Z,12.10
2023-05-18T20:15:32.822Z,12.10
2023-05-18T20:18:05.168Z,12.10
2023-05-18T20:20:36.310Z,12.10
2023-05-18T20:23:06.981Z,12.10
2023-05-18T20:25:36.563Z,12.20
2023-05-18T20:28:07.553Z,12.20
2023-05-18T20:30:36.558Z,12.10
2023-05-18T20:33:06.711Z,12.10
2023-05-18T20:35:36.360Z,12.00
2023-05-18T20:38:14.517Z,12.00
2023-05-18T20:40:44.417Z,12.00
2023-05-18T20:43:18.221Z,12.00
2023-05-18T20:45:47.505Z,12.00
2023-05-18T20:48:25.053Z,12.00
2023-05-18T20:50:56.950Z,12.00
2023-05-18T20:53:26.237Z,12.00
2023-05-18T20:55:54.877Z,12.00
2023-05-18T20:58:23.463Z,12.10
2023-05-18T21:00:52.397Z,12.00
2023-05-18T21:03:22.649Z,12.00
2023-05-18T21:05:52.016Z,11.90
2023-05-18T21:08:20.718Z,11.90
2023-05-18T21:10:49.375Z,11.90
2023-05-18T21:13:18.064Z,11.90
2023-05-18T21:15:46.718Z,11.90
2023-05-18T21:18:15.427Z,11.90
2023-05-18T21:20:46.099Z,11.90
2023-05-18T21:23:14.755Z,11.90
2023-05-18T21:25:43.379Z,11.90
2023-05-18T21:28:12.018Z,11.90
2023-05-18T21:30:41.333Z,11.90
2023-05-18T21:33:10.096Z,11.90
2023-05-18T21:35:38.920Z,11.90
2023-05-18T21:38:09.020Z,11.90
2023-05-18T21:40:38.124Z,11.90
2023-05-18T21:43:06.754Z,11.90
2023-05-18T21:45:35.791Z,11.90
2023-05-18T21:48:04.584Z,11.90
2023-05-18T21:50:35.385Z,11.90
2023-05-18T21:53:04.386Z,11.80
2023-05-18T21:55:34.953Z,11.90
2023-05-18T21:58:03.611Z,11.90
2023-05-18T22:00:32.466Z,11.80
2023-05-18T22:03:01.367Z,11.80
2023-05-18T22:05:30.050Z,11.80
2023-05-18T22:07:59.283Z,11.90
2023-05-18T22:10:28.143Z,11.80
2023-05-18T22:12:58.229Z,11.70
2023-05-18T22:15:27.038Z,11.80
2023-05-18T22:17:55.978Z,11.70
2023-05-18T22:20:24.834Z,11.70
2023-05-18T22:22:53.612Z,11.70
2023-05-18T22:25:22.251Z,11.60
2023-05-18T22:27:50.934Z,11.70
2023-05-18T22:30:24.009Z,11.70
2023-05-18T22:32:53.207Z,11.60
2023-05-18T22:35:22.088Z,11.60
2023-05-18T22:37:50.837Z,11.60
2023-05-18T22:40:19.542Z,11.50
2023-05-18T22:42:48.289Z,11.50
2023-05-18T22:45:17.236Z,11.50
2023-05-18T22:47:48.515Z,11.40
2023-05-18T22:50:17.252Z,11.50
2023-05-18T22:52:46.159Z,11.30
2023-05-18T22:55:14.851Z,11.40
2023-05-18T22:57:44.826Z,11.40
2023-05-18T23:00:15.976Z,11.40
2023-05-18T23:02:44.839Z,11.40
2023-05-18T23:05:16.177Z,11.40
2023-05-18T23:07:44.871Z,11.40
2023-05-18T23:10:14.462Z,11.30
2023-05-18T23:12:45.682Z,11.30
2023-05-18T23:15:15.665Z,11.30
2023-05-18T23:17:46.362Z,11.30
2023-05-18T23:20:16.737Z,11.30
2023-05-18T23:22:45.679Z,11.30
2023-05-18T23:25:14.327Z,11.20
2023-05-18T23:27:43.083Z,11.20
2023-05-18T23:30:12.932Z,11.20
2023-05-18T23:32:42.457Z,11.20
2023-05-18T23:35:14.009Z,11.20
2023-05-18T23:37:44.679Z,11.20
2023-05-18T23:40:14.496Z,11.10
2023-05-18T23:42:43.657Z,11.10
2023-05-18T23:45:13.482Z,11.10
2023-05-18T23:47:42.648Z,11.10
2023-05-18T23:50:12.392Z,11.10
2023-05-18T23:52:42.574Z,11.10
2023-05-18T23:55:13.826Z,11.10
2023-05-18T23:57:43.052Z,11.00
